METAR Data
IDs: Format: Raw Decoded Include TAF

Data at: 0904 UTC 03 Aug 2021

KFCH 030855Z AUTO 32007KT 10SM CLR 25/07 A2997 RMK A01
KFCH 030835Z AUTO 33007KT 10SM CLR 25/08 A2997 RMK A01
KFCH 030815Z AUTO 33005KT 10SM CLR 25/09 A2997 RMK A01
KFCH 030755Z AUTO 32005KT 10SM CLR 25/10 A2998 RMK A01
KFCH 030735Z AUTO 32006KT 10SM CLR 25/10 A2998 RMK A01
KFCH 030715Z AUTO 31006KT 10SM CLR 25/11 A2998 RMK A01
KFCH 030655Z AUTO 31005KT 10SM CLR 26/11 A2998 RMK A01
KFCH 030635Z AUTO 31007KT 10SM CLR 26/11 A2998 RMK A01
KFCH 030615Z AUTO 30007KT 10SM CLR 27/11 A2997 RMK A01
KFCH 030555Z AUTO 30009KT 10SM CLR 27/11 A2997 RMK A01
KFCH 030535Z AUTO 31010KT 10SM CLR 28/11 A2997 RMK A01
KFCH 030515Z AUTO 31009KT 10SM CLR 28/12 A2997 RMK A01
KFCH 030455Z AUTO 31008KT 10SM CLR 28/13 A2997 RMK A01
KFCH 030435Z AUTO 30009KT 10SM CLR 29/13 A2996 RMK A01
KFCH 030410Z AUTO 30010KT 10SM CLR 30/13 A2995 RMK A01
KFCH 030355Z AUTO 30010KT 10SM CLR 31/13 A2995 RMK A01
KFCH 030335Z AUTO 30008KT 10SM CLR 31/12 A2994 RMK A01
KFCH 030315Z AUTO 30008KT 10SM CLR 32/11 A2994 RMK A01
KFCH 030255Z AUTO 31009KT 10SM CLR 33/11 A2994 RMK A01
KFCH 030235Z AUTO 30012KT 10SM CLR 34/11 A2993 RMK A01
KFCH 030215Z AUTO 31010KT 10SM CLR 35/10 A2993 RMK A01
KFCH 030155Z AUTO 30011KT 10SM CLR 36/08 A2993 RMK A01
KFCH 030135Z AUTO 30009KT 10SM CLR 36/07 A2993 RMK A01
KFCH 030115Z AUTO 30010KT 10SM CLR 36/08 A2993 RMK A01
KFCH 030050Z AUTO 32008G15KT 10SM CLR 37/08 A2994 RMK A01
KFCH 030035Z AUTO 29011KT 10SM CLR 37/09 A2994 RMK A01
KFCH 030015Z AUTO 32008G13KT 10SM CLR 37/06 A2994 RMK A01
KFCH 022355Z AUTO 29008G13KT 10SM CLR 37/08 A2995 RMK A01
KFCH 022335Z AUTO 29007KT 10SM CLR 37/07 A2995 RMK A01
KFCH 022315Z AUTO VRB06KT 10SM CLR 37/05 A2996 RMK A01
KFCH 022255Z AUTO 29008KT 10SM CLR 37/04 A2997 RMK A01
KFCH 022230Z AUTO 32007G13KT 10SM CLR 36/07 A2997 RMK A01
KFCH 022215Z AUTO 30007KT 10SM CLR 36/06 A2998 RMK A01
KFCH 022150Z AUTO 30007KT 270V330 10SM CLR 35/07 A2999 RMK A01
KFCH 022135Z AUTO 31006KT 10SM CLR 35/09 A2999 RMK A01
KFCH 022115Z AUTO 35005KT 10SM CLR 35/10 A3000 RMK A01
KFCH 022050Z AUTO VRB06G11KT 10SM CLR 34/10 A3001 RMK A01
KFCH 022035Z AUTO 33006KT 10SM CLR 34/11 A3002 RMK A01
KFCH 022015Z AUTO VRB06KT 10SM CLR 33/12 A3002 RMK A01
KFCH 021955Z AUTO 28008KT 10SM CLR 32/12 A3003 RMK A01
KFCH 021935Z AUTO VRB06KT 10SM CLR 32/12 A3004 RMK A01
KFCH 021915Z AUTO VRB03KT 10SM CLR 31/12 A3005 RMK A01
KFCH 021855Z AUTO 34005G11KT 10SM CLR 30/12 A3006 RMK A01
KFCH 021835Z AUTO 00000KT 10SM CLR 29/12 A3006 RMK A01
KFCH 021815Z AUTO VRB04KT 10SM CLR 29/12 A3007 RMK A01
KFCH 021755Z AUTO VRB05KT 10SM CLR 28/12 A3007 RMK A01
KFCH 021735Z AUTO 00000KT 10SM CLR 27/11 A3007 RMK A01
KFCH 021715Z AUTO VRB05KT 10SM CLR 26/12 A3008 RMK A01
KFCH 021655Z AUTO 00000KT 10SM CLR 25/12 A3008 RMK A01
KFCH 021635Z AUTO 27003KT 10SM CLR 24/12 A3008 RMK A01
KFCH 021615Z AUTO 29004KT 10SM CLR 23/12 A3008 RMK A01
KFCH 021555Z AUTO 00000KT 9SM CLR 22/12 A3009 RMK A01
KFCH 021530Z AUTO 00000KT 10SM CLR 21/12 A3009 RMK A01
KFCH 021515Z AUTO 30005KT 10SM CLR 20/12 A3009 RMK A01
KFCH 021455Z AUTO 28006KT 10SM CLR 20/12 A3009 RMK A01
KFCH 021435Z AUTO 30005KT 10SM CLR 19/12 A3008 RMK A01
KFCH 021415Z AUTO 30007KT 10SM CLR 18/12 A3008 RMK A01
KFCH 021355Z AUTO 30006KT 10SM CLR 18/13 A3007 RMK A01
KFCH 021335Z AUTO 30005KT 10SM CLR 18/13 A3007 RMK A01
KFCH 021315Z AUTO 28006KT 10SM CLR 18/13 A3006 RMK A01
KFCH 021255Z AUTO 28006KT 10SM CLR 18/13 A3005 RMK A01
KFCH 021235Z AUTO 29006KT 10SM CLR 19/13 A3004 RMK A01
KFCH 021215Z AUTO 27006KT 10SM CLR 19/13 A3004 RMK A01
KFCH 021155Z AUTO 25006KT 10SM CLR 21/11 A3004 RMK A01
KFCH 021135Z AUTO 32006G13KT 10SM CLR 22/11 A3003 RMK A01
KFCH 021115Z AUTO 34007KT 10SM CLR 22/11 A3002 RMK A01
KFCH 021055Z AUTO 33007KT 10SM CLR 22/11 A3002 RMK A01
KFCH 021030Z AUTO 33006KT 10SM CLR 22/11 A3002 RMK A01
KFCH 021015Z AUTO 33007KT 10SM CLR 22/11 A3002 RMK A01
KFCH 020955Z AUTO 32005KT 10SM CLR 22/12 A3002 RMK A01
KFCH 020935Z AUTO 30007KT 10SM CLR 22/12 A3001 RMK A01
KFCH 020915Z AUTO 29006KT 10SM CLR 22/13 A3001 RMK A01
KFCH 020855Z AUTO 28006KT 10SM CLR 23/13 A3001 RMK A01
KFCH 020835Z AUTO 28006KT 10SM CLR 23/13 A3001 RMK A01
KFCH 020815Z AUTO 29006KT 10SM CLR 24/14 A3001 RMK A01
KFCH 020755Z AUTO 31006KT 10SM CLR 24/14 A3000 RMK A01
KFCH 020735Z AUTO 31009KT 10SM CLR 25/14 A2999 RMK A01
KFCH 020715Z AUTO 30008KT 10SM CLR 26/13 A2999 RMK A01
KFCH 020655Z AUTO 30006KT 10SM CLR 27/13 A2999 RMK A01
KFCH 020635Z AUTO 31009KT 10SM CLR 27/13 A2998 RMK A01
KFCH 020615Z AUTO 33006KT 10SM CLR 28/14 A2998 RMK A01
KFCH 020555Z AUTO 30007KT 10SM CLR 28/15 A2998 RMK A01
KFCH 020530Z AUTO 31009KT 10SM CLR 29/15 A2998 RMK A01
KFCH 020515Z AUTO 31007KT 10SM CLR 29/15 A2997 RMK A01
KFCH 020455Z AUTO 30009KT 10SM CLR 30/16 A2997 RMK A01
KFCH 020435Z AUTO 29008KT 10SM CLR 31/16 A2996 RMK A01
KFCH 020415Z AUTO 31008G13KT 10SM CLR 32/16 A2995 RMK A01
KFCH 020355Z AUTO 30010KT 10SM CLR 33/15 A2994 RMK A01
KFCH 020335Z AUTO 30011KT 10SM CLR 34/14 A2993 RMK A01
KFCH 020315Z AUTO 24010KT 10SM CLR 37/11 A2993 RMK A01
KFCH 020250Z AUTO 00000KT 10SM CLR 39/06 A2992 RMK A01
KFCH 020235Z AUTO 00000KT 10SM CLR 39/06 A2991 RMK A01
KFCH 020215Z AUTO 00000KT 10SM CLR 39/07 A2991 RMK A01
KFCH 020155Z AUTO 21005KT 10SM CLR 39/04 A2991 RMK A01
KFCH 020135Z AUTO VRB04KT 10SM CLR 39/06 A2991 RMK A01
KFCH 020115Z AUTO 21004KT 10SM CLR 39/08 A2991 RMK A01
KFCH 020055Z AUTO 00000KT 10SM CLR 39/08 A2991 RMK A01
KFCH 020035Z AUTO 25004KT 10SM CLR 39/08 A2992 RMK A01
KFCH 020015Z AUTO 21005KT 10SM CLR 39/08 A2992 RMK A01
KFCH 012355Z AUTO 20005KT 10SM CLR 39/07 A2992 RMK A01
KFCH 012335Z AUTO 23003KT 10SM CLR 39/07 A2992 RMK A01
KFCH 012315Z AUTO 18004KT 10SM CLR 39/07 A2993 RMK A01
KFCH 012255Z AUTO 00000KT 10SM CLR 39/07 A2994 RMK A01
KFCH 012235Z AUTO VRB04KT 10SM CLR 39/06 A2994 RMK A01
KFCH 012215Z AUTO 00000KT 10SM CLR 38/07 A2995 RMK A01
KFCH 012155Z AUTO 00000KT 10SM CLR 38/06 A2996 RMK A01
KFCH 012135Z AUTO 21005KT 10SM CLR 38/06 A2996 RMK A01
KFCH 012115Z AUTO 23005KT 10SM CLR 38/07 A2997 RMK A01